Time;durP1;ratioP1;P1;durP2;ratioP2;P2;SDS_P1;SDS_P2;PMS_P1;PMS_P2;Temp;Humidity;BMP_temperature;BMP_pressure;BME280_temperature;BME280_humidity;BME280_pressure;Samples;Min_cycle;Max_cycle;Signal;HPM_P1;HPM_P2
2021/05/23 00:00:17;;;;;;;9.38;3.35;;;;;;;;;;5059124;28;20430;-82
2021/05/23 00:02:43;;;;;;;7.63;3.53;;;;;;;;;;5056386;28;20466;-81
2021/05/23 00:05:14;;;;;;;6.13;3.13;;;;;;;;;;5060649;28;20411;-83
2021/05/23 00:07:49;;;;;;;7.10;3.30;;;;;;;;;;5059452;28;20406;-83
2021/05/23 00:10:17;;;;;;;7.13;3.50;;;;;;;;;;5059432;28;20404;-81
2021/05/23 00:12:43;;;;;;;7.93;3.30;;;;;;;;;;5058817;28;20416;-81
2021/05/23 00:15:12;;;;;;;6.53;3.33;;;;;;;;;;5058110;28;20444;-82
2021/05/23 00:17:38;;;;;;;8.45;3.80;;;;;;;;;;5059555;28;20403;-81
2021/05/23 00:20:06;;;;;;;7.28;3.22;;;;;;;;;;5057593;28;20410;-82
2021/05/23 00:22:33;;;;;;;5.93;3.67;;;;;;;;;;5060290;28;20408;-82
2021/05/23 00:25:00;;;;;;;6.65;3.78;;;;;;;;;;5056553;28;20406;-82
2021/05/23 00:27:26;;;;;;;7.22;3.80;;;;;;;;;;5060917;28;20402;-82
2021/05/23 00:29:52;;;;;;;5.78;3.70;;;;;;;;;;5057365;28;20422;-82
2021/05/23 00:32:19;;;;;;;6.78;3.97;;;;;;;;;;5059307;28;20395;-82
2021/05/23 00:34:46;;;;;;;7.30;3.80;;;;;;;;;;5058389;28;20402;-83
2021/05/23 00:37:12;;;;;;;8.48;3.95;;;;;;;;;;5057952;28;20491;-81
2021/05/23 00:39:40;;;;;;;413.13;37.17;;;;;;;;;;5058514;28;20393;-83
2021/05/23 00:42:09;;;;;;;7.82;4.25;;;;;;;;;;5057170;28;20422;-81
2021/05/23 00:44:35;;;;;;;6.30;4.07;;;;;;;;;;5058658;28;20479;-83
2021/05/23 00:47:02;;;;;;;7.28;3.88;;;;;;;;;;5051644;28;20395;-81
2021/05/23 00:49:28;;;;;;;7.78;4.00;;;;;;;;;;5057940;28;20405;-82
2021/05/23 00:51:55;;;;;;;5.38;3.80;;;;;;;;;;5053540;28;20403;-81
2021/05/23 00:54:21;;;;;;;4.93;4.07;;;;;;;;;;5057430;28;20891;-82
2021/05/23 00:56:49;;;;;;;6.25;4.03;;;;;;;;;;5055832;28;20394;-82
2021/05/23 00:59:17;;;;;;;6.32;4.10;;;;;;;;;;5056989;28;20422;-83
2021/05/23 01:02:32;;;;;;;7.05;4.10;;;;;;;;;;5054664;28;20415;-83
2021/05/23 01:04:59;;;;;;;6.57;4.00;;;;;;;;;;5051643;28;20407;-82
2021/05/23 01:07:26;;;;;;;7.15;3.92;;;;;;;;;;5059227;28;20402;-82
2021/05/23 01:09:53;;;;;;;7.30;3.85;;;;;;;;;;5056028;28;20937;-82
2021/05/23 01:13:10;;;;;;;7.60;4.20;;;;;;;;;;5058419;28;20407;-82
2021/05/23 01:15:40;;;;;;;6.70;3.80;;;;;;;;;;5053791;28;21071;-82
2021/05/23 01:18:13;;;;;;;6.53;3.70;;;;;;;;;;5057268;28;20410;-82
2021/05/23 01:20:50;;;;;;;5.00;3.65;;;;;;;;;;5057138;28;20399;-82
2021/05/23 01:23:30;;;;;;;7.80;3.47;;;;;;;;;;5057485;28;20409;-82
2021/05/23 01:26:06;;;;;;;6.18;3.65;;;;;;;;;;5051682;28;20422;-82
2021/05/23 01:28:36;;;;;;;5.85;3.78;;;;;;;;;;5052783;28;20412;-83
2021/05/23 01:31:06;;;;;;;7.15;3.75;;;;;;;;;;5052965;28;20406;-82
2021/05/23 01:33:33;;;;;;;5.73;3.67;;;;;;;;;;5055054;28;20519;-81
2021/05/23 01:36:00;;;;;;;5.50;3.55;;;;;;;;;;5055057;28;20461;-82
2021/05/23 01:38:28;;;;;;;6.13;3.60;;;;;;;;;;5051540;28;20430;-80
2021/05/23 01:41:00;;;;;;;5.43;3.67;;;;;;;;;;5055162;28;20449;-82
2021/05/23 01:43:28;;;;;;;5.47;3.60;;;;;;;;;;5051599;28;20448;-83
2021/05/23 01:45:55;;;;;;;5.35;3.38;;;;;;;;;;5057956;28;20405;-82
2021/05/23 01:48:21;;;;;;;6.35;3.75;;;;;;;;;;5058107;28;20763;-83
2021/05/23 01:50:48;;;;;;;6.00;4.03;;;;;;;;;;5056715;28;20497;-83
2021/05/23 01:53:14;;;;;;;5.60;3.60;;;;;;;;;;5057276;28;20420;-83
2021/05/23 01:55:41;;;;;;;4.65;3.42;;;;;;;;;;5057794;28;20398;-83
2021/05/23 01:58:09;;;;;;;6.38;3.60;;;;;;;;;;5056488;28;20941;-83
2021/05/23 02:00:38;;;;;;;5.20;3.40;;;;;;;;;;5058901;28;20489;-83
2021/05/23 02:03:06;;;;;;;5.20;3.50;;;;;;;;;;5055363;28;20414;-82
2021/05/23 02:05:34;;;;;;;7.22;3.78;;;;;;;;;;5054673;28;20403;-82
2021/05/23 02:08:01;;;;;;;6.10;3.40;;;;;;;;;;5058457;28;20398;-82
2021/05/23 02:10:27;;;;;;;4.90;3.75;;;;;;;;;;5051454;28;20946;-82
2021/05/23 02:12:55;;;;;;;7.20;3.60;;;;;;;;;;5058166;28;20845;-82
2021/05/23 02:15:23;;;;;;;5.50;3.42;;;;;;;;;;5059359;28;20917;-83
2021/05/23 02:17:49;;;;;;;5.45;3.30;;;;;;;;;;5061471;28;20456;-83
2021/05/23 02:20:19;;;;;;;7.60;3.60;;;;;;;;;;5060932;28;20390;-82
2021/05/23 02:22:47;;;;;;;6.78;3.65;;;;;;;;;;5061109;28;20404;-82
2021/05/23 02:25:16;;;;;;;5.30;3.40;;;;;;;;;;5061429;28;20861;-82
2021/05/23 02:27:46;;;;;;;6.57;3.70;;;;;;;;;;5060884;28;20863;-82
2021/05/23 02:30:16;;;;;;;6.32;3.60;;;;;;;;;;5061160;28;20402;-83
2021/05/23 02:32:44;;;;;;;6.75;3.88;;;;;;;;;;5060597;28;20415;-82
2021/05/23 02:35:12;;;;;;;6.40;3.78;;;;;;;;;;5061036;28;20418;-82
2021/05/23 02:37:39;;;;;;;9.43;3.97;;;;;;;;;;5059858;28;20403;-83
2021/05/23 02:40:07;;;;;;;6.72;3.95;;;;;;;;;;5058212;28;20415;-82
2021/05/23 02:42:34;;;;;;;5.30;3.75;;;;;;;;;;5062186;28;20408;-82
2021/05/23 02:45:01;;;;;;;5.78;3.50;;;;;;;;;;5058809;28;20403;-83
2021/05/23 02:47:27;;;;;;;6.47;4.27;;;;;;;;;;5054831;28;20472;-83
2021/05/23 02:49:55;;;;;;;8.68;4.90;;;;;;;;;;5058448;28;20399;-81
2021/05/23 02:52:21;;;;;;;5.80;3.97;;;;;;;;;;5061483;28;21161;-82
2021/05/23 02:54:49;;;;;;;6.32;3.90;;;;;;;;;;5059691;28;20803;-82
2021/05/23 02:57:16;;;;;;;5.30;4.00;;;;;;;;;;5060862;28;20408;-83
2021/05/23 02:59:42;;;;;;;5.85;4.00;;;;;;;;;;5060600;28;20402;-82
2021/05/23 03:02:09;;;;;;;8.05;4.22;;;;;;;;;;5059255;28;20410;-82
2021/05/23 03:04:36;;;;;;;5.78;4.20;;;;;;;;;;5061339;28;20405;-82
2021/05/23 03:07:03;;;;;;;6.45;4.28;;;;;;;;;;5058019;28;20406;-83
2021/05/23 03:09:30;;;;;;;5.90;4.07;;;;;;;;;;5062261;28;20405;-82
2021/05/23 03:11:57;;;;;;;5.93;3.90;;;;;;;;;;5058028;28;20886;-83
2021/05/23 03:14:23;;;;;;;7.68;4.43;;;;;;;;;;5061015;28;20420;-82
2021/05/23 03:16:50;;;;;;;6.72;4.28;;;;;;;;;;5058739;28;20432;-83
2021/05/23 03:19:16;;;;;;;5.30;4.30;;;;;;;;;;5060123;28;20409;-82
2021/05/23 03:21:43;;;;;;;5.85;4.05;;;;;;;;;;5060144;28;20409;-82
2021/05/23 03:24:11;;;;;;;8.45;4.55;;;;;;;;;;5059128;28;20402;-83
2021/05/23 03:26:37;;;;;;;5.88;3.90;;;;;;;;;;5060446;28;20398;-82
2021/05/23 03:29:04;;;;;;;5.85;4.30;;;;;;;;;;5058068;28;20514;-83
2021/05/23 03:31:30;;;;;;;6.87;4.53;;;;;;;;;;5061272;28;20398;-81
2021/05/23 03:33:57;;;;;;;6.75;4.30;;;;;;;;;;5057278;28;20419;-83
2021/05/23 03:36:23;;;;;;;7.15;4.63;;;;;;;;;;5060960;28;20502;-81
2021/05/23 03:38:50;;;;;;;6.53;4.50;;;;;;;;;;5057276;28;20404;-83
2021/05/23 03:41:17;;;;;;;5.63;4.05;;;;;;;;;;5059230;28;20401;-83
2021/05/23 03:43:44;;;;;;;6.93;3.93;;;;;;;;;;5059225;28;20410;-82
2021/05/23 03:46:10;;;;;;;5.60;4.03;;;;;;;;;;5059523;28;20410;-81
2021/05/23 03:48:37;;;;;;;5.65;3.70;;;;;;;;;;5058081;28;20767;-83
2021/05/23 03:51:03;;;;;;;8.65;4.40;;;;;;;;;;5060847;28;20471;-83
2021/05/23 03:53:30;;;;;;;7.10;4.28;;;;;;;;;;5057455;28;20949;-83
2021/05/23 03:55:57;;;;;;;4.97;3.75;;;;;;;;;;5061436;28;20403;-82
2021/05/23 03:58:24;;;;;;;7.97;4.00;;;;;;;;;;5060597;28;20400;-83
2021/05/23 04:00:50;;;;;;;5.93;3.88;;;;;;;;;;5058078;28;20417;-83
2021/05/23 04:03:17;;;;;;;5.75;3.45;;;;;;;;;;5059100;28;20412;-82
2021/05/23 04:05:43;;;;;;;6.43;3.30;;;;;;;;;;5059313;28;20402;-83
2021/05/23 04:08:10;;;;;;;5.75;3.80;;;;;;;;;;5058344;28;21060;-82
2021/05/23 04:10:38;;;;;;;5.73;3.57;;;;;;;;;;5059928;28;20443;-82
2021/05/23 04:13:08;;;;;;;8.18;3.80;;;;;;;;;;5056988;28;20500;-83
2021/05/23 04:15:35;;;;;;;8.07;3.95;;;;;;;;;;5060235;28;20459;-82
2021/05/23 04:18:02;;;;;;;6.28;4.05;;;;;;;;;;5056865;28;21031;-84
2021/05/23 04:20:30;;;;;;;5.30;3.70;;;;;;;;;;5053359;28;20407;-82
2021/05/23 04:22:57;;;;;;;7.68;3.90;;;;;;;;;;5060204;28;20484;-82
2021/05/23 04:25:25;;;;;;;6.17;4.60;;;;;;;;;;5057633;28;20487;-82
2021/05/23 04:27:52;;;;;;;6.88;4.40;;;;;;;;;;5059292;28;20400;-82
2021/05/23 04:30:22;;;;;;;6.85;4.20;;;;;;;;;;5058026;28;20402;-83
2021/05/23 04:32:49;;;;;;;6.35;4.50;;;;;;;;;;5058912;28;20569;-83
2021/05/23 04:35:16;;;;;;;5.75;4.63;;;;;;;;;;5058402;28;20395;-83
2021/05/23 04:37:43;;;;;;;5.85;4.60;;;;;;;;;;5057295;28;20407;-83
2021/05/23 04:40:11;;;;;;;5.25;4.50;;;;;;;;;;5056049;28;20661;-84
2021/05/23 04:42:37;;;;;;;7.47;4.85;;;;;;;;;;5059427;28;20398;-83
2021/05/23 04:45:06;;;;;;;6.45;4.88;;;;;;;;;;5056501;28;20420;-81
2021/05/23 04:47:32;;;;;;;8.25;4.90;;;;;;;;;;5059942;28;20445;-83
2021/05/23 04:50:00;;;;;;;6.82;4.93;;;;;;;;;;5052442;28;20933;-83
2021/05/23 04:52:26;;;;;;;7.68;4.75;;;;;;;;;;5059752;28;20401;-83
2021/05/23 04:54:53;;;;;;;8.55;4.57;;;;;;;;;;5056716;28;20504;-83
2021/05/23 04:57:19;;;;;;;8.43;4.90;;;;;;;;;;5058744;28;20400;-82
2021/05/23 04:59:47;;;;;;;7.13;4.90;;;;;;;;;;5057554;28;20903;-83
2021/05/23 05:02:13;;;;;;;8.00;4.90;;;;;;;;;;5057279;28;20837;-83
2021/05/23 05:04:40;;;;;;;8.25;5.00;;;;;;;;;;5058341;28;20394;-83
2021/05/23 05:07:07;;;;;;;8.88;4.90;;;;;;;;;;5055883;28;20399;-83
2021/05/23 05:09:34;;;;;;;6.85;4.95;;;;;;;;;;5058966;28;20419;-82
2021/05/23 05:12:00;;;;;;;5.70;4.10;;;;;;;;;;5055853;28;20414;-83
2021/05/23 05:14:26;;;;;;;5.30;4.05;;;;;;;;;;5059467;28;20422;-83
2021/05/23 05:16:53;;;;;;;5.05;3.55;;;;;;;;;;5056388;28;20418;-83
2021/05/23 05:19:19;;;;;;;5.67;4.00;;;;;;;;;;5058706;28;20410;-82
2021/05/23 05:21:46;;;;;;;4.82;3.72;;;;;;;;;;5057271;28;20407;-83
2021/05/23 05:24:14;;;;;;;6.18;3.85;;;;;;;;;;5057265;28;20448;-83
2021/05/23 05:26:41;;;;;;;4.95;3.83;;;;;;;;;;5058389;28;20447;-83
2021/05/23 05:29:07;;;;;;;4.60;3.90;;;;;;;;;;5056571;28;20408;-84
2021/05/23 05:31:34;;;;;;;6.53;3.85;;;;;;;;;;5051928;28;20461;-82
2021/05/23 05:34:01;;;;;;;5.72;3.83;;;;;;;;;;5058938;28;20422;-83
2021/05/23 05:36:28;;;;;;;5.25;4.00;;;;;;;;;;5052065;28;20412;-83
2021/05/23 05:38:55;;;;;;;5.25;3.33;;;;;;;;;;5055299;28;20430;-83
2021/05/23 05:41:22;;;;;;;3.65;3.10;;;;;;;;;;5057513;28;20909;-83
2021/05/23 05:43:50;;;;;;;4.57;3.08;;;;;;;;;;5056596;28;20880;-83
2021/05/23 05:46:16;;;;;;;4.35;2.80;;;;;;;;;;5060123;28;20394;-82
2021/05/23 05:48:43;;;;;;;4.25;2.83;;;;;;;;;;5056617;28;20864;-83
2021/05/23 05:51:09;;;;;;;4.10;2.90;;;;;;;;;;5057702;28;20985;-82
2021/05/23 05:53:36;;;;;;;4.72;2.88;;;;;;;;;;5053229;28;20420;-83
2021/05/23 05:56:04;;;;;;;4.72;3.00;;;;;;;;;;5073462;22;20386;-83
2021/05/23 05:58:34;;;;;;;4.30;2.70;;;;;;;;;;5019118;28;20409;-74
2021/05/23 06:01:01;;;;;;;4.97;2.90;;;;;;;;;;5023821;28;20413;-83
2021/05/23 06:03:27;;;;;;;5.25;3.40;;;;;;;;;;5022133;28;20403;-83
2021/05/23 06:05:54;;;;;;;3.60;3.10;;;;;;;;;;5015776;28;20430;-82
2021/05/23 06:08:21;;;;;;;5.35;3.17;;;;;;;;;;5018054;28;20425;-82
2021/05/23 06:10:48;;;;;;;6.50;3.38;;;;;;;;;;5015829;28;20513;-82
2021/05/23 06:13:14;;;;;;;4.93;2.95;;;;;;;;;;5023039;28;20777;-83
2021/05/23 06:15:42;;;;;;;5.68;3.15;;;;;;;;;;5018397;28;20403;-83
2021/05/23 06:18:08;;;;;;;7.17;3.40;;;;;;;;;;5015307;28;20433;-82
2021/05/23 06:20:35;;;;;;;5.05;3.42;;;;;;;;;;5019314;28;20408;-82
2021/05/23 06:23:08;;;;;;;5.75;3.90;;;;;;;;;;5017372;28;20408;-83
2021/05/23 06:25:34;;;;;;;7.20;4.13;;;;;;;;;;5011231;28;20399;-83
2021/05/23 06:28:01;;;;;;;7.72;4.20;;;;;;;;;;5017717;28;21174;-83
2021/05/23 06:30:28;;;;;;;7.13;4.10;;;;;;;;;;5015545;28;20915;-83
2021/05/23 06:32:55;;;;;;;6.90;4.03;;;;;;;;;;5018066;28;20406;-83
2021/05/23 06:35:21;;;;;;;8.80;4.10;;;;;;;;;;5015889;28;20401;-83
2021/05/23 06:37:48;;;;;;;6.10;3.50;;;;;;;;;;5016539;28;20410;-83
2021/05/23 06:40:15;;;;;;;6.95;4.20;;;;;;;;;;5018295;28;20401;-83
2021/05/23 06:42:42;;;;;;;7.65;4.28;;;;;;;;;;5017283;28;20893;-83
2021/05/23 06:45:09;;;;;;;7.53;4.40;;;;;;;;;;5023003;28;20409;-83
2021/05/23 06:47:35;;;;;;;7.13;4.65;;;;;;;;;;5022850;28;20924;-83
2021/05/23 06:50:05;;;;;;;8.18;4.60;;;;;;;;;;5025660;28;20409;-83
2021/05/23 06:52:31;;;;;;;9.90;5.70;;;;;;;;;;5026530;28;20404;-83
2021/05/23 06:54:58;;;;;;;10.83;5.80;;;;;;;;;;5015061;28;20423;-83
2021/05/23 06:57:24;;;;;;;12.00;6.10;;;;;;;;;;5015196;28;20410;-83
2021/05/23 06:59:52;;;;;;;10.02;6.53;;;;;;;;;;5017886;28;20409;-82
2021/05/23 07:02:20;;;;;;;10.57;6.65;;;;;;;;;;5025823;28;20541;-83
2021/05/23 07:04:46;;;;;;;11.02;7.07;;;;;;;;;;5022285;28;20494;-83
2021/05/23 07:07:14;;;;;;;13.35;7.03;;;;;;;;;;5021730;28;20397;-83
2021/05/23 07:09:42;;;;;;;11.32;6.50;;;;;;;;;;5028905;28;20397;-83
2021/05/23 07:12:10;;;;;;;12.60;7.22;;;;;;;;;;5024917;28;20438;-83
2021/05/23 07:14:37;;;;;;;12.18;7.00;;;;;;;;;;5021091;28;20836;-83
2021/05/23 07:17:04;;;;;;;11.52;7.25;;;;;;;;;;5021508;28;20413;-83
2021/05/23 07:19:31;;;;;;;10.85;7.28;;;;;;;;;;5022275;28;20543;-83
2021/05/23 07:21:57;;;;;;;9.73;6.45;;;;;;;;;;5020898;28;20421;-83
2021/05/23 07:24:25;;;;;;;12.93;7.23;;;;;;;;;;5025371;28;20556;-83
2021/05/23 07:26:51;;;;;;;12.15;6.68;;;;;;;;;;5030304;28;20406;-83
2021/05/23 07:29:18;;;;;;;11.05;6.50;;;;;;;;;;5020526;28;20938;-83
2021/05/23 07:31:45;;;;;;;11.57;6.90;;;;;;;;;;5019653;28;20889;-82
2021/05/23 07:34:11;;;;;;;10.05;7.70;;;;;;;;;;5021988;28;21296;-80
2021/05/23 07:36:38;;;;;;;11.93;7.32;;;;;;;;;;5026954;28;20397;-82
2021/05/23 07:39:04;;;;;;;13.88;7.32;;;;;;;;;;5025072;28;20867;-82
2021/05/23 07:41:31;;;;;;;12.25;6.88;;;;;;;;;;5025071;28;21232;-80
2021/05/23 07:43:58;;;;;;;11.70;7.03;;;;;;;;;;5027979;28;20402;-80
2021/05/23 07:46:24;;;;;;;11.05;7.50;;;;;;;;;;5023279;28;20405;-80
2021/05/23 07:48:51;;;;;;;11.35;7.13;;;;;;;;;;5022064;28;20401;-82
2021/05/23 07:51:17;;;;;;;12.60;7.72;;;;;;;;;;5023402;28;20404;-81
2021/05/23 07:53:44;;;;;;;12.55;6.82;;;;;;;;;;5026445;28;20508;-82
2021/05/23 07:56:11;;;;;;;12.73;7.28;;;;;;;;;;5022183;28;20409;-81
2021/05/23 07:58:38;;;;;;;11.25;7.25;;;;;;;;;;5022194;28;20455;-79
2021/05/23 08:01:05;;;;;;;11.15;7.50;;;;;;;;;;5022345;28;20405;-79
2021/05/23 08:03:31;;;;;;;14.07;7.18;;;;;;;;;;5024918;28;20770;-81
2021/05/23 08:05:58;;;;;;;12.05;6.40;;;;;;;;;;5024562;28;20813;-80
2021/05/23 08:08:24;;;;;;;11.20;6.53;;;;;;;;;;5024297;28;20407;-80
2021/05/23 08:10:51;;;;;;;12.90;7.72;;;;;;;;;;5022756;28;20511;-79
2021/05/23 08:13:17;;;;;;;12.23;6.83;;;;;;;;;;5022479;28;20896;-80
2021/05/23 08:15:44;;;;;;;12.23;6.95;;;;;;;;;;5025178;28;20401;-80
2021/05/23 08:18:11;;;;;;;12.35;6.57;;;;;;;;;;5023451;28;20413;-82
2021/05/23 08:20:38;;;;;;;11.73;7.10;;;;;;;;;;5023557;28;20416;-80
2021/05/23 08:23:04;;;;;;;13.32;6.97;;;;;;;;;;5023608;28;20765;-80
2021/05/23 08:25:31;;;;;;;12.73;6.85;;;;;;;;;;5024111;28;20778;-80
2021/05/23 08:27:57;;;;;;;12.63;6.97;;;;;;;;;;5023410;28;20951;-79
2021/05/23 08:30:24;;;;;;;13.10;6.78;;;;;;;;;;5021476;28;20838;-80
2021/05/23 08:32:52;;;;;;;10.85;7.45;;;;;;;;;;5024493;28;20431;-81
2021/05/23 08:35:18;;;;;;;14.55;7.60;;;;;;;;;;5024316;28;20432;-79
2021/05/23 08:37:45;;;;;;;13.82;6.43;;;;;;;;;;5022684;28;20405;-80
2021/05/23 08:40:12;;;;;;;12.02;5.53;;;;;;;;;;5025037;28;20409;-80
2021/05/23 08:42:38;;;;;;;11.73;7.05;;;;;;;;;;5022734;28;20397;-80
2021/05/23 08:45:06;;;;;;;11.75;5.97;;;;;;;;;;5019776;28;20429;-80
2021/05/23 08:47:39;;;;;;;10.23;6.23;;;;;;;;;;5018063;28;20889;-80
2021/05/23 08:50:08;;;;;;;9.70;5.83;;;;;;;;;;5014340;28;20500;-79
2021/05/23 08:52:34;;;;;;;10.68;6.60;;;;;;;;;;5018018;28;20402;-80
2021/05/23 08:55:01;;;;;;;11.70;5.70;;;;;;;;;;5014369;28;20427;-80
2021/05/23 08:57:27;;;;;;;13.45;5.60;;;;;;;;;;5017491;28;21007;-80
2021/05/23 08:59:54;;;;;;;9.35;5.43;;;;;;;;;;5014692;28;20407;-80
2021/05/23 09:02:20;;;;;;;14.40;5.50;;;;;;;;;;5023616;28;20402;-80
2021/05/23 09:04:48;;;;;;;11.30;6.17;;;;;;;;;;5024785;28;20480;-81
2021/05/23 09:07:15;;;;;;;11.57;5.87;;;;;;;;;;5015444;28;20411;-81
2021/05/23 09:09:42;;;;;;;9.80;5.78;;;;;;;;;;5019755;28;20403;-81
2021/05/23 09:12:10;;;;;;;11.60;6.45;;;;;;;;;;5016675;28;20492;-82
2021/05/23 09:14:39;;;;;;;11.35;5.35;;;;;;;;;;5022159;28;20796;-80
2021/05/23 09:17:06;;;;;;;10.82;4.82;;;;;;;;;;5020826;28;20397;-81
2021/05/23 09:19:43;;;;;;;11.60;4.80;;;;;;;;;;5017851;28;20862;-80
2021/05/23 09:22:09;;;;;;;10.32;5.07;;;;;;;;;;5015929;28;20465;-79
2021/05/23 09:24:51;;;;;;;9.97;5.20;;;;;;;;;;5018146;28;20500;-81
2021/05/23 09:27:18;;;;;;;8.32;4.93;;;;;;;;;;5017899;28;20465;-79
2021/05/23 09:29:45;;;;;;;9.77;4.93;;;;;;;;;;5018346;28;20405;-80
2021/05/23 09:32:17;;;;;;;7.20;4.97;;;;;;;;;;5017606;28;21110;-81
2021/05/23 09:34:47;;;;;;;10.10;5.50;;;;;;;;;;5017242;28;20421;-79
2021/05/23 09:37:14;;;;;;;11.23;5.50;;;;;;;;;;5019006;28;20439;-80
2021/05/23 09:39:41;;;;;;;10.50;5.60;;;;;;;;;;5014336;28;20895;-80
2021/05/23 09:42:12;;;;;;;11.60;5.68;;;;;;;;;;5015229;28;20417;-80
2021/05/23 09:44:39;;;;;;;8.77;4.70;;;;;;;;;;5016396;28;20416;-80
2021/05/23 09:47:09;;;;;;;9.70;5.13;;;;;;;;;;5013332;28;20406;-80
2021/05/23 09:49:41;;;;;;;9.60;4.82;;;;;;;;;;5015938;28;20405;-81
2021/05/23 09:52:12;;;;;;;9.30;5.00;;;;;;;;;;5014000;28;20411;-81
2021/05/23 09:54:46;;;;;;;12.65;5.20;;;;;;;;;;5015910;28;20425;-81
2021/05/23 09:57:15;;;;;;;10.05;5.00;;;;;;;;;;5020044;28;20946;-80
2021/05/23 09:59:41;;;;;;;11.82;4.50;;;;;;;;;;5015202;28;20407;-81
2021/05/23 10:02:09;;;;;;;11.07;4.15;;;;;;;;;;5016261;28;20404;-79
2021/05/23 10:04:37;;;;;;;10.40;4.40;;;;;;;;;;5013519;28;20496;-79
2021/05/23 10:07:06;;;;;;;9.45;4.55;;;;;;;;;;5016509;28;20409;-80
2021/05/23 10:09:33;;;;;;;9.48;5.00;;;;;;;;;;5013744;28;20414;-79
2021/05/23 10:12:00;;;;;;;12.50;4.90;;;;;;;;;;5012815;28;20415;-79
2021/05/23 10:14:28;;;;;;;8.43;4.10;;;;;;;;;;5016926;28;20421;-79
2021/05/23 10:16:55;;;;;;;9.32;4.40;;;;;;;;;;5013950;28;20399;-80
2021/05/23 10:19:23;;;;;;;9.48;4.13;;;;;;;;;;5015823;28;20409;-80
2021/05/23 10:21:50;;;;;;;11.75;4.70;;;;;;;;;;5014734;28;20413;-80
2021/05/23 10:24:23;;;;;;;9.73;5.15;;;;;;;;;;5015642;28;20876;-80
2021/05/23 10:26:54;;;;;;;11.93;4.72;;;;;;;;;;5013945;28;20405;-79
2021/05/23 10:29:21;;;;;;;11.90;5.20;;;;;;;;;;5019730;28;20399;-80
2021/05/23 10:31:49;;;;;;;8.82;4.10;;;;;;;;;;5014734;28;20404;-80
2021/05/23 10:34:15;;;;;;;9.82;4.35;;;;;;;;;;5015244;28;20437;-79
2021/05/23 10:36:44;;;;;;;10.40;4.13;;;;;;;;;;5019368;28;20459;-80
2021/05/23 10:39:12;;;;;;;7.78;4.00;;;;;;;;;;5018112;28;20445;-80
2021/05/23 10:41:39;;;;;;;8.17;4.00;;;;;;;;;;5016969;28;20852;-79
2021/05/23 10:44:08;;;;;;;12.68;4.88;;;;;;;;;;5020238;28;20459;-80
2021/05/23 10:46:45;;;;;;;11.50;4.40;;;;;;;;;;5020508;28;20401;-79
2021/05/23 10:49:12;;;;;;;11.67;4.30;;;;;;;;;;5020803;28;20470;-79
2021/05/23 10:51:39;;;;;;;9.50;4.18;;;;;;;;;;5025580;28;20889;-80
2021/05/23 10:54:14;;;;;;;9.55;3.90;;;;;;;;;;5025801;28;20444;-79
2021/05/23 10:56:41;;;;;;;8.65;3.78;;;;;;;;;;5024932;28;20924;-79
2021/05/23 10:59:07;;;;;;;10.38;4.00;;;;;;;;;;5021614;28;20901;-80
2021/05/23 11:01:41;;;;;;;9.57;3.80;;;;;;;;;;5018347;28;20461;-79
2021/05/23 11:04:10;;;;;;;8.18;3.78;;;;;;;;;;5022086;28;20397;-78
2021/05/23 11:06:38;;;;;;;8.43;4.03;;;;;;;;;;5028165;28;20770;-85
2021/05/23 11:09:09;;;;;;;10.07;4.18;;;;;;;;;;5025599;28;20476;-79
2021/05/23 11:11:36;;;;;;;7.47;3.73;;;;;;;;;;5005676;28;20911;-82
2021/05/23 11:14:22;;;;;;;9.25;4.10;;;;;;;;;;5015796;28;20926;-81
2021/05/23 11:16:51;;;;;;;7.80;3.72;;;;;;;;;;5019430;28;20445;-79
2021/05/23 11:19:18;;;;;;;7.53;3.80;;;;;;;;;;5019635;28;20505;-81
2021/05/23 11:21:47;;;;;;;10.90;3.83;;;;;;;;;;5013046;28;20411;-81
2021/05/23 11:24:15;;;;;;;6.78;3.42;;;;;;;;;;5016455;28;20409;-80
2021/05/23 11:26:41;;;;;;;8.73;3.60;;;;;;;;;;5023456;28;21166;-80
2021/05/23 11:29:08;;;;;;;7.38;3.40;;;;;;;;;;5022731;28;20409;-80
2021/05/23 11:31:36;;;;;;;8.18;4.00;;;;;;;;;;5021338;28;20497;-81
2021/05/23 11:34:04;;;;;;;6.85;3.47;;;;;;;;;;5018912;28;20427;-80
2021/05/23 11:36:32;;;;;;;7.15;3.40;;;;;;;;;;5020004;28;20440;-80
2021/05/23 11:39:01;;;;;;;9.07;3.60;;;;;;;;;;5019384;28;20399;-80
2021/05/23 11:41:29;;;;;;;7.13;3.20;;;;;;;;;;5023508;28;21278;-79
2021/05/23 11:43:57;;;;;;;6.45;3.10;;;;;;;;;;5022552;28;20475;-80
2021/05/23 11:46:24;;;;;;;8.05;3.13;;;;;;;;;;5016335;28;20461;-80
2021/05/23 11:48:52;;;;;;;9.82;3.50;;;;;;;;;;5019255;28;20419;-80
2021/05/23 11:51:23;;;;;;;8.40;3.25;;;;;;;;;;5016130;28;20418;-80
2021/05/23 11:53:51;;;;;;;7.93;3.20;;;;;;;;;;5018410;28;20413;-80
2021/05/23 11:56:19;;;;;;;7.50;3.10;;;;;;;;;;5014735;28;20413;-80
2021/05/23 11:58:47;;;;;;;6.30;2.85;;;;;;;;;;5016620;28;20435;-80
2021/05/23 12:01:17;;;;;;;7.10;3.22;;;;;;;;;;5018443;28;21692;-80
2021/05/23 12:03:54;;;;;;;8.18;2.95;;;;;;;;;;5016871;28;20425;-80
2021/05/23 12:06:20;;;;;;;8.35;3.17;;;;;;;;;;5015693;28;20403;-80
2021/05/23 12:08:47;;;;;;;5.57;2.70;;;;;;;;;;5012517;28;20465;-80
2021/05/23 12:11:13;;;;;;;6.70;2.88;;;;;;;;;;5013571;28;21061;-80
2021/05/23 12:13:43;;;;;;;6.95;2.65;;;;;;;;;;5015102;28;20470;-80
2021/05/23 12:16:12;;;;;;;5.72;2.40;;;;;;;;;;5015325;28;20904;-80
2021/05/23 12:18:41;;;;;;;7.68;3.00;;;;;;;;;;5013313;28;20464;-80
2021/05/23 12:21:10;;;;;;;6.38;2.20;;;;;;;;;;5015775;28;20967;-81
2021/05/23 12:23:38;;;;;;;8.60;2.67;;;;;;;;;;5018635;28;20475;-81
2021/05/23 12:26:09;;;;;;;5.18;2.33;;;;;;;;;;5014793;28;20409;-79
2021/05/23 12:28:41;;;;;;;5.00;2.45;;;;;;;;;;5014872;28;20936;-79
2021/05/23 12:31:10;;;;;;;4.63;2.13;;;;;;;;;;5016985;28;20405;-80
2021/05/23 12:33:38;;;;;;;5.85;2.25;;;;;;;;;;5011942;28;20902;-80
2021/05/23 12:36:11;;;;;;;5.55;2.10;;;;;;;;;;5018505;28;20903;-82
2021/05/23 12:38:38;;;;;;;5.10;2.13;;;;;;;;;;5013141;28;20412;-80
2021/05/23 12:41:05;;;;;;;4.55;2.05;;;;;;;;;;5014815;28;20411;-80
2021/05/23 12:43:34;;;;;;;4.65;1.90;;;;;;;;;;5012638;28;20928;-81
2021/05/23 12:46:02;;;;;;;3.50;1.73;;;;;;;;;;5014558;28;20956;-81
2021/05/23 12:48:32;;;;;;;5.57;1.87;;;;;;;;;;5023109;28;20747;-81
2021/05/23 12:51:00;;;;;;;4.70;1.63;;;;;;;;;;5013551;28;20795;-82
2021/05/23 12:53:27;;;;;;;4.40;1.90;;;;;;;;;;5021590;28;21114;-82
2021/05/23 12:55:55;;;;;;;3.85;1.60;;;;;;;;;;5021922;28;20413;-81
2021/05/23 12:58:22;;;;;;;4.35;1.67;;;;;;;;;;5023001;28;20739;-82
2021/05/23 13:00:51;;;;;;;6.50;1.77;;;;;;;;;;5019887;28;20449;-85
2021/05/23 13:03:18;;;;;;;5.43;1.95;;;;;;;;;;5020360;28;20405;-85
2021/05/23 13:05:54;;;;;;;3.40;1.88;;;;;;;;;;5022185;28;20972;-84
2021/05/23 13:08:21;;;;;;;5.78;1.95;;;;;;;;;;5022271;28;20397;-79
2021/05/23 13:10:47;;;;;;;3.90;1.95;;;;;;;;;;5019049;28;20439;-85
2021/05/23 13:13:14;;;;;;;4.93;2.03;;;;;;;;;;5020601;28;20405;-84
2021/05/23 13:15:40;;;;;;;7.78;2.17;;;;;;;;;;5020871;28;20413;-79
2021/05/23 13:18:07;;;;;;;5.22;1.98;;;;;;;;;;5024533;28;20901;-79
2021/05/23 13:20:35;;;;;;;4.00;1.83;;;;;;;;;;5023858;28;20750;-81
2021/05/23 13:23:04;;;;;;;4.10;1.85;;;;;;;;;;5019378;28;20405;-80
2021/05/23 13:25:31;;;;;;;5.55;1.73;;;;;;;;;;5020249;28;20429;-76
2021/05/23 13:27:58;;;;;;;4.72;1.60;;;;;;;;;;5024087;28;20402;-76
2021/05/23 13:30:26;;;;;;;3.88;1.73;;;;;;;;;;5019702;28;20415;-75
2021/05/23 13:32:54;;;;;;;5.07;1.77;;;;;;;;;;5022626;28;20429;-76
2021/05/23 13:35:22;;;;;;;4.22;1.77;;;;;;;;;;5023183;28;20405;-76
2021/05/23 13:37:51;;;;;;;4.18;1.85;;;;;;;;;;5023895;28;20444;-81
2021/05/23 13:40:20;;;;;;;6.25;2.30;;;;;;;;;;5023416;28;20393;-81
2021/05/23 13:42:48;;;;;;;4.70;1.83;;;;;;;;;;5022658;28;20413;-81
2021/05/23 13:45:16;;;;;;;5.78;2.10;;;;;;;;;;5023168;28;20430;-81
2021/05/23 13:47:43;;;;;;;4.22;2.03;;;;;;;;;;5023416;28;20813;-81
2021/05/23 13:50:11;;;;;;;4.68;1.67;;;;;;;;;;5020509;28;20421;-81
2021/05/23 13:52:38;;;;;;;6.32;1.83;;;;;;;;;;5019001;28;20405;-82
2021/05/23 13:55:05;;;;;;;7.03;1.85;;;;;;;;;;5014365;28;20407;-82
2021/05/23 13:57:32;;;;;;;4.68;1.70;;;;;;;;;;5018330;28;20467;-83
2021/05/23 13:59:59;;;;;;;5.60;1.70;;;;;;;;;;5017860;28;20414;-83
2021/05/23 14:02:25;;;;;;;3.83;1.70;;;;;;;;;;5014702;28;20448;-82
2021/05/23 14:04:52;;;;;;;5.75;1.90;;;;;;;;;;5011762;28;20421;-82
2021/05/23 14:07:20;;;;;;;4.15;2.00;;;;;;;;;;5012755;28;20946;-82
2021/05/23 14:09:46;;;;;;;5.13;2.08;;;;;;;;;;5019027;28;20416;-84
2021/05/23 14:12:12;;;;;;;4.28;2.10;;;;;;;;;;5025168;28;20483;-82
2021/05/23 14:14:40;;;;;;;5.03;2.08;;;;;;;;;;5026690;28;20397;-82
2021/05/23 14:17:06;;;;;;;6.07;1.88;;;;;;;;;;5027182;28;20448;-82
2021/05/23 14:19:33;;;;;;;5.32;1.73;;;;;;;;;;5027030;28;20405;-83
2021/05/23 14:21:59;;;;;;;3.58;1.60;;;;;;;;;;5020239;28;20601;-84
2021/05/23 14:24:26;;;;;;;6.70;2.05;;;;;;;;;;5026456;28;21212;-82
2021/05/23 14:26:52;;;;;;;4.25;1.80;;;;;;;;;;5025627;28;20405;-83
2021/05/23 14:29:22;;;;;;;3.47;1.80;;;;;;;;;;5023158;28;20421;-83
2021/05/23 14:31:50;;;;;;;6.73;2.10;;;;;;;;;;5023720;28;20415;-83
2021/05/23 14:34:17;;;;;;;4.43;2.00;;;;;;;;;;5026061;28;21053;-83
2021/05/23 14:36:44;;;;;;;4.28;1.85;;;;;;;;;;5024657;28;20410;-84
2021/05/23 14:39:10;;;;;;;4.97;1.75;;;;;;;;;;5026590;28;20955;-84
2021/05/23 14:41:38;;;;;;;3.72;2.13;;;;;;;;;;5023312;28;20403;-84
2021/05/23 14:44:05;;;;;;;2.87;1.80;;;;;;;;;;5019294;28;20433;-83